sensor_id;sensor_type;location;lat;lon;timestamp;P1;durP1;ratioP1;P2;durP2;ratioP2
16286;SDS011;8251;53.568;10.018;2023-11-21T00:01:12;8.30;;;4.80;;
16286;SDS011;8251;53.568;10.018;2023-11-21T00:03:39;7.67;;;4.73;;
16286;SDS011;8251;53.568;10.018;2023-11-21T00:06:06;7.80;;;4.83;;
16286;SDS011;8251;53.568;10.018;2023-11-21T00:08:34;7.00;;;4.93;;
16286;SDS011;8251;53.568;10.018;2023-11-21T00:11:01;10.40;;;5.07;;
16286;SDS011;8251;53.568;10.018;2023-11-21T00:13:31;8.67;;;4.63;;
16286;SDS011;8251;53.568;10.018;2023-11-21T00:16:00;7.77;;;5.07;;
16286;SDS011;8251;53.568;10.018;2023-11-21T00:18:27;6.67;;;4.60;;
16286;SDS011;8251;53.568;10.018;2023-11-21T00:20:54;6.80;;;4.00;;
16286;SDS011;8251;53.568;10.018;2023-11-21T00:23:23;6.23;;;3.37;;
16286;SDS011;8251;53.568;10.018;2023-11-21T00:25:51;7.03;;;4.03;;
16286;SDS011;8251;53.568;10.018;2023-11-21T00:28:17;10.17;;;4.10;;
16286;SDS011;8251;53.568;10.018;2023-11-21T00:30:46;5.60;;;4.20;;
16286;SDS011;8251;53.568;10.018;2023-11-21T00:33:13;6.53;;;4.47;;
16286;SDS011;8251;53.568;10.018;2023-11-21T00:35:40;7.30;;;4.13;;
16286;SDS011;8251;53.568;10.018;2023-11-21T00:38:07;6.30;;;4.23;;
16286;SDS011;8251;53.568;10.018;2023-11-21T00:40:34;8.37;;;4.50;;
16286;SDS011;8251;53.568;10.018;2023-11-21T00:43:01;6.33;;;4.43;;
16286;SDS011;8251;53.568;10.018;2023-11-21T00:45:28;7.23;;;5.10;;
16286;SDS011;8251;53.568;10.018;2023-11-21T00:47:56;8.90;;;5.50;;
16286;SDS011;8251;53.568;10.018;2023-11-21T00:50:23;11.10;;;6.97;;
16286;SDS011;8251;53.568;10.018;2023-11-21T00:52:50;12.40;;;5.70;;
16286;SDS011;8251;53.568;10.018;2023-11-21T00:55:18;10.50;;;6.40;;
16286;SDS011;8251;53.568;10.018;2023-11-21T00:57:45;9.93;;;6.43;;
16286;SDS011;8251;53.568;10.018;2023-11-21T01:00:12;19.23;;;6.87;;
16286;SDS011;8251;53.568;10.018;2023-11-21T01:02:41;12.03;;;6.70;;
16286;SDS011;8251;53.568;10.018;2023-11-21T01:05:10;16.83;;;7.47;;
16286;SDS011;8251;53.568;10.018;2023-11-21T01:07:37;12.90;;;6.17;;
16286;SDS011;8251;53.568;10.018;2023-11-21T01:10:04;10.90;;;6.33;;
16286;SDS011;8251;53.568;10.018;2023-11-21T01:12:33;12.03;;;7.47;;
16286;SDS011;8251;53.568;10.018;2023-11-21T01:15:01;13.77;;;8.00;;
16286;SDS011;8251;53.568;10.018;2023-11-21T01:17:29;14.33;;;7.90;;
16286;SDS011;8251;53.568;10.018;2023-11-21T01:19:56;12.13;;;7.07;;
16286;SDS011;8251;53.568;10.018;2023-11-21T01:22:24;13.63;;;8.13;;
16286;SDS011;8251;53.568;10.018;2023-11-21T01:24:51;13.23;;;7.37;;
16286;SDS011;8251;53.568;10.018;2023-11-21T01:27:18;15.23;;;7.43;;
16286;SDS011;8251;53.568;10.018;2023-11-21T01:29:45;12.53;;;7.10;;
16286;SDS011;8251;53.568;10.018;2023-11-21T01:32:12;13.00;;;7.93;;
16286;SDS011;8251;53.568;10.018;2023-11-21T01:34:39;16.80;;;9.07;;
16286;SDS011;8251;53.568;10.018;2023-11-21T01:37:06;11.87;;;6.60;;
16286;SDS011;8251;53.568;10.018;2023-11-21T01:39:35;14.10;;;7.03;;
16286;SDS011;8251;53.568;10.018;2023-11-21T01:42:04;14.50;;;6.57;;
16286;SDS011;8251;53.568;10.018;2023-11-21T01:44:32;11.47;;;6.73;;
16286;SDS011;8251;53.568;10.018;2023-11-21T01:47:00;10.10;;;6.53;;
16286;SDS011;8251;53.568;10.018;2023-11-21T01:49:30;9.40;;;6.03;;
16286;SDS011;8251;53.568;10.018;2023-11-21T01:51:57;11.00;;;6.93;;
16286;SDS011;8251;53.568;10.018;2023-11-21T01:54:25;9.10;;;5.90;;
16286;SDS011;8251;53.568;10.018;2023-11-21T01:56:57;10.63;;;6.23;;
16286;SDS011;8251;53.568;10.018;2023-11-21T01:59:28;10.50;;;6.23;;
16286;SDS011;8251;53.568;10.018;2023-11-21T02:02:00;10.57;;;5.87;;
16286;SDS011;8251;53.568;10.018;2023-11-21T02:04:27;8.30;;;5.10;;
16286;SDS011;8251;53.568;10.018;2023-11-21T02:06:54;8.93;;;5.60;;
16286;SDS011;8251;53.568;10.018;2023-11-21T02:09:24;9.07;;;5.30;;
16286;SDS011;8251;53.568;10.018;2023-11-21T02:11:52;9.97;;;5.80;;
16286;SDS011;8251;53.568;10.018;2023-11-21T02:14:22;7.93;;;5.07;;
16286;SDS011;8251;53.568;10.018;2023-11-21T02:16:50;7.20;;;4.63;;
16286;SDS011;8251;53.568;10.018;2023-11-21T02:19:17;6.80;;;4.20;;
16286;SDS011;8251;53.568;10.018;2023-11-21T02:21:47;6.43;;;4.17;;
16286;SDS011;8251;53.568;10.018;2023-11-21T02:24:18;8.60;;;4.57;;
16286;SDS011;8251;53.568;10.018;2023-11-21T02:26:46;7.53;;;4.20;;
16286;SDS011;8251;53.568;10.018;2023-11-21T02:29:13;7.07;;;4.30;;
16286;SDS011;8251;53.568;10.018;2023-11-21T02:31:43;7.47;;;4.73;;
16286;SDS011;8251;53.568;10.018;2023-11-21T02:34:14;7.13;;;4.73;;
16286;SDS011;8251;53.568;10.018;2023-11-21T02:36:41;6.23;;;4.30;;
16286;SDS011;8251;53.568;10.018;2023-11-21T02:39:09;8.20;;;4.07;;
16286;SDS011;8251;53.568;10.018;2023-11-21T02:41:38;6.53;;;4.40;;
16286;SDS011;8251;53.568;10.018;2023-11-21T02:44:05;8.60;;;4.70;;
16286;SDS011;8251;53.568;10.018;2023-11-21T02:46:32;5.40;;;3.93;;
16286;SDS011;8251;53.568;10.018;2023-11-21T02:49:00;6.63;;;3.93;;
16286;SDS011;8251;53.568;10.018;2023-11-21T02:51:27;8.07;;;4.33;;
16286;SDS011;8251;53.568;10.018;2023-11-21T02:53:55;8.27;;;4.57;;
16286;SDS011;8251;53.568;10.018;2023-11-21T02:56:24;6.17;;;3.77;;
16286;SDS011;8251;53.568;10.018;2023-11-21T02:58:55;7.07;;;4.40;;
16286;SDS011;8251;53.568;10.018;2023-11-21T03:01:22;6.10;;;4.10;;
16286;SDS011;8251;53.568;10.018;2023-11-21T03:03:50;6.03;;;3.80;;
16286;SDS011;8251;53.568;10.018;2023-11-21T03:06:17;7.00;;;4.27;;
16286;SDS011;8251;53.568;10.018;2023-11-21T03:08:44;7.70;;;4.00;;
16286;SDS011;8251;53.568;10.018;2023-11-21T03:11:11;7.07;;;4.33;;
16286;SDS011;8251;53.568;10.018;2023-11-21T03:13:39;7.23;;;4.30;;
16286;SDS011;8251;53.568;10.018;2023-11-21T03:16:08;6.53;;;4.47;;
16286;SDS011;8251;53.568;10.018;2023-11-21T03:18:36;6.73;;;4.37;;
16286;SDS011;8251;53.568;10.018;2023-11-21T03:21:03;6.50;;;4.13;;
16286;SDS011;8251;53.568;10.018;2023-11-21T03:23:30;6.77;;;4.57;;
16286;SDS011;8251;53.568;10.018;2023-11-21T03:25:57;7.37;;;4.90;;
16286;SDS011;8251;53.568;10.018;2023-11-21T03:28:24;6.80;;;4.53;;
16286;SDS011;8251;53.568;10.018;2023-11-21T03:30:52;8.67;;;4.50;;
16286;SDS011;8251;53.568;10.018;2023-11-21T03:33:20;7.53;;;4.50;;
16286;SDS011;8251;53.568;10.018;2023-11-21T03:35:47;6.03;;;4.00;;
16286;SDS011;8251;53.568;10.018;2023-11-21T03:38:15;5.57;;;4.40;;
16286;SDS011;8251;53.568;10.018;2023-11-21T03:40:42;6.77;;;4.87;;
16286;SDS011;8251;53.568;10.018;2023-11-21T03:43:09;7.30;;;4.73;;
16286;SDS011;8251;53.568;10.018;2023-11-21T03:45:37;6.03;;;4.50;;
16286;SDS011;8251;53.568;10.018;2023-11-21T03:48:05;7.17;;;4.20;;
16286;SDS011;8251;53.568;10.018;2023-11-21T03:50:35;7.63;;;4.40;;
16286;SDS011;8251;53.568;10.018;2023-11-21T03:53:02;8.30;;;4.93;;
16286;SDS011;8251;53.568;10.018;2023-11-21T03:55:29;7.87;;;4.70;;
16286;SDS011;8251;53.568;10.018;2023-11-21T03:57:56;9.03;;;4.77;;
16286;SDS011;8251;53.568;10.018;2023-11-21T04:00:24;8.03;;;4.33;;
16286;SDS011;8251;53.568;10.018;2023-11-21T04:02:52;7.83;;;4.40;;
16286;SDS011;8251;53.568;10.018;2023-11-21T04:05:20;9.80;;;5.17;;
16286;SDS011;8251;53.568;10.018;2023-11-21T04:07:49;7.33;;;4.43;;
16286;SDS011;8251;53.568;10.018;2023-11-21T04:10:17;6.93;;;4.70;;
16286;SDS011;8251;53.568;10.018;2023-11-21T04:12:44;7.43;;;5.03;;
16286;SDS011;8251;53.568;10.018;2023-11-21T04:15:11;7.40;;;4.53;;
16286;SDS011;8251;53.568;10.018;2023-11-21T04:17:39;7.13;;;4.83;;
16286;SDS011;8251;53.568;10.018;2023-11-21T04:20:06;7.63;;;4.80;;
16286;SDS011;8251;53.568;10.018;2023-11-21T04:22:36;6.63;;;4.80;;
16286;SDS011;8251;53.568;10.018;2023-11-21T04:25:07;7.50;;;4.73;;
16286;SDS011;8251;53.568;10.018;2023-11-21T04:27:34;8.43;;;5.47;;
16286;SDS011;8251;53.568;10.018;2023-11-21T04:30:02;8.57;;;5.40;;
16286;SDS011;8251;53.568;10.018;2023-11-21T04:32:30;9.47;;;5.60;;
16286;SDS011;8251;53.568;10.018;2023-11-21T04:34:57;9.13;;;5.40;;
16286;SDS011;8251;53.568;10.018;2023-11-21T04:37:24;8.53;;;5.13;;
16286;SDS011;8251;53.568;10.018;2023-11-21T04:39:51;9.50;;;5.80;;
16286;SDS011;8251;53.568;10.018;2023-11-21T04:42:19;6.00;;;4.70;;
16286;SDS011;8251;53.568;10.018;2023-11-21T04:44:46;9.70;;;5.37;;
16286;SDS011;8251;53.568;10.018;2023-11-21T04:47:14;9.23;;;4.60;;
16286;SDS011;8251;53.568;10.018;2023-11-21T04:49:41;9.40;;;5.47;;
16286;SDS011;8251;53.568;10.018;2023-11-21T04:52:08;9.50;;;5.20;;
16286;SDS011;8251;53.568;10.018;2023-11-21T04:54:36;7.67;;;4.97;;
16286;SDS011;8251;53.568;10.018;2023-11-21T04:57:05;8.90;;;5.53;;
16286;SDS011;8251;53.568;10.018;2023-11-21T04:59:33;6.83;;;4.80;;
16286;SDS011;8251;53.568;10.018;2023-11-21T05:02:00;8.33;;;5.30;;
16286;SDS011;8251;53.568;10.018;2023-11-21T05:04:28;10.87;;;5.50;;
16286;SDS011;8251;53.568;10.018;2023-11-21T05:06:55;9.10;;;5.80;;
16286;SDS011;8251;53.568;10.018;2023-11-21T05:09:22;9.07;;;5.63;;
16286;SDS011;8251;53.568;10.018;2023-11-21T05:11:49;7.83;;;4.97;;
16286;SDS011;8251;53.568;10.018;2023-11-21T05:14:16;7.57;;;4.83;;
16286;SDS011;8251;53.568;10.018;2023-11-21T05:16:45;7.77;;;4.97;;
16286;SDS011;8251;53.568;10.018;2023-11-21T05:19:12;9.20;;;4.90;;
16286;SDS011;8251;53.568;10.018;2023-11-21T05:21:39;9.50;;;5.97;;
16286;SDS011;8251;53.568;10.018;2023-11-21T05:24:06;9.60;;;5.83;;
16286;SDS011;8251;53.568;10.018;2023-11-21T05:26:34;7.50;;;4.80;;
16286;SDS011;8251;53.568;10.018;2023-11-21T05:29:00;9.70;;;5.20;;
16286;SDS011;8251;53.568;10.018;2023-11-21T05:31:28;8.77;;;5.27;;
16286;SDS011;8251;53.568;10.018;2023-11-21T05:33:56;6.97;;;4.83;;
16286;SDS011;8251;53.568;10.018;2023-11-21T05:36:24;8.07;;;5.80;;
16286;SDS011;8251;53.568;10.018;2023-11-21T05:38:51;10.17;;;5.30;;
16286;SDS011;8251;53.568;10.018;2023-11-21T05:41:18;8.27;;;5.10;;
16286;SDS011;8251;53.568;10.018;2023-11-21T05:43:45;10.00;;;5.07;;
16286;SDS011;8251;53.568;10.018;2023-11-21T05:46:14;7.33;;;4.97;;
16286;SDS011;8251;53.568;10.018;2023-11-21T05:48:46;9.83;;;5.80;;
16286;SDS011;8251;53.568;10.018;2023-11-21T05:51:20;8.87;;;5.83;;
16286;SDS011;8251;53.568;10.018;2023-11-21T05:53:47;9.70;;;5.07;;
16286;SDS011;8251;53.568;10.018;2023-11-21T05:56:14;8.27;;;5.10;;
16286;SDS011;8251;53.568;10.018;2023-11-21T05:58:43;8.60;;;5.17;;
16286;SDS011;8251;53.568;10.018;2023-11-21T06:01:10;8.03;;;5.30;;
16286;SDS011;8251;53.568;10.018;2023-11-21T06:03:38;10.07;;;5.10;;
16286;SDS011;8251;53.568;10.018;2023-11-21T06:06:05;9.10;;;5.53;;
16286;SDS011;8251;53.568;10.018;2023-11-21T06:08:33;8.80;;;5.60;;
16286;SDS011;8251;53.568;10.018;2023-11-21T06:11:00;8.83;;;5.87;;
16286;SDS011;8251;53.568;10.018;2023-11-21T06:13:28;10.00;;;6.90;;
16286;SDS011;8251;53.568;10.018;2023-11-21T06:15:56;6.83;;;4.27;;
16286;SDS011;8251;53.568;10.018;2023-11-21T06:18:23;8.17;;;5.00;;
16286;SDS011;8251;53.568;10.018;2023-11-21T06:20:50;9.37;;;6.13;;
16286;SDS011;8251;53.568;10.018;2023-11-21T06:23:18;8.37;;;5.87;;
16286;SDS011;8251;53.568;10.018;2023-11-21T06:25:48;7.17;;;4.73;;
16286;SDS011;8251;53.568;10.018;2023-11-21T06:28:14;8.33;;;5.37;;
16286;SDS011;8251;53.568;10.018;2023-11-21T06:30:43;8.60;;;6.10;;
16286;SDS011;8251;53.568;10.018;2023-11-21T06:33:10;8.37;;;5.57;;
16286;SDS011;8251;53.568;10.018;2023-11-21T06:35:37;7.73;;;5.83;;
16286;SDS011;8251;53.568;10.018;2023-11-21T06:38:05;9.73;;;5.67;;
16286;SDS011;8251;53.568;10.018;2023-11-21T06:40:32;7.33;;;5.10;;
16286;SDS011;8251;53.568;10.018;2023-11-21T06:43:00;7.47;;;5.23;;
16286;SDS011;8251;53.568;10.018;2023-11-21T06:45:27;9.60;;;5.63;;
16286;SDS011;8251;53.568;10.018;2023-11-21T06:47:54;9.00;;;5.10;;
16286;SDS011;8251;53.568;10.018;2023-11-21T06:50:21;8.20;;;5.33;;
16286;SDS011;8251;53.568;10.018;2023-11-21T06:52:48;10.17;;;5.67;;
16286;SDS011;8251;53.568;10.018;2023-11-21T06:55:15;8.60;;;4.87;;
16286;SDS011;8251;53.568;10.018;2023-11-21T06:57:42;8.40;;;5.20;;
16286;SDS011;8251;53.568;10.018;2023-11-21T07:00:11;6.93;;;4.70;;
16286;SDS011;8251;53.568;10.018;2023-11-21T07:02:39;8.40;;;5.73;;
16286;SDS011;8251;53.568;10.018;2023-11-21T07:05:06;10.10;;;5.07;;
16286;SDS011;8251;53.568;10.018;2023-11-21T07:07:34;9.00;;;4.63;;
16286;SDS011;8251;53.568;10.018;2023-11-21T07:10:02;6.87;;;4.60;;
16286;SDS011;8251;53.568;10.018;2023-11-21T07:12:31;8.80;;;5.60;;
16286;SDS011;8251;53.568;10.018;2023-11-21T07:14:58;8.47;;;5.97;;
16286;SDS011;8251;53.568;10.018;2023-11-21T07:17:26;9.30;;;5.50;;
16286;SDS011;8251;53.568;10.018;2023-11-21T07:19:53;11.37;;;5.33;;
16286;SDS011;8251;53.568;10.018;2023-11-21T07:22:20;7.13;;;5.20;;
16286;SDS011;8251;53.568;10.018;2023-11-21T07:24:48;6.87;;;4.87;;
16286;SDS011;8251;53.568;10.018;2023-11-21T07:27:16;6.83;;;4.87;;
16286;SDS011;8251;53.568;10.018;2023-11-21T07:29:43;6.93;;;4.87;;
16286;SDS011;8251;53.568;10.018;2023-11-21T07:32:10;6.77;;;4.93;;
16286;SDS011;8251;53.568;10.018;2023-11-21T07:34:39;7.80;;;5.10;;
16286;SDS011;8251;53.568;10.018;2023-11-21T07:37:06;8.67;;;4.70;;
16286;SDS011;8251;53.568;10.018;2023-11-21T07:39:34;7.73;;;5.10;;
16286;SDS011;8251;53.568;10.018;2023-11-21T07:42:00;8.90;;;5.53;;
16286;SDS011;8251;53.568;10.018;2023-11-21T07:44:27;10.23;;;5.03;;
16286;SDS011;8251;53.568;10.018;2023-11-21T07:46:55;8.67;;;5.43;;
16286;SDS011;8251;53.568;10.018;2023-11-21T07:49:22;7.63;;;5.53;;
16286;SDS011;8251;53.568;10.018;2023-11-21T07:51:51;7.23;;;5.00;;
16286;SDS011;8251;53.568;10.018;2023-11-21T07:54:18;8.70;;;4.90;;
16286;SDS011;8251;53.568;10.018;2023-11-21T07:56:46;6.50;;;4.30;;
16286;SDS011;8251;53.568;10.018;2023-11-21T07:59:13;7.63;;;4.30;;
16286;SDS011;8251;53.568;10.018;2023-11-21T08:01:40;9.73;;;4.70;;
16286;SDS011;8251;53.568;10.018;2023-11-21T08:04:09;5.90;;;4.57;;
16286;SDS011;8251;53.568;10.018;2023-11-21T08:06:41;7.73;;;5.00;;
16286;SDS011;8251;53.568;10.018;2023-11-21T08:09:17;8.73;;;4.90;;
16286;SDS011;8251;53.568;10.018;2023-11-21T08:11:49;6.97;;;4.60;;
16286;SDS011;8251;53.568;10.018;2023-11-21T08:14:17;5.33;;;3.80;;
16286;SDS011;8251;53.568;10.018;2023-11-21T08:16:45;7.33;;;4.67;;
16286;SDS011;8251;53.568;10.018;2023-11-21T08:19:17;6.60;;;3.97;;
16286;SDS011;8251;53.568;10.018;2023-11-21T08:21:50;5.80;;;3.80;;
16286;SDS011;8251;53.568;10.018;2023-11-21T08:24:21;5.70;;;3.70;;
16286;SDS011;8251;53.568;10.018;2023-11-21T08:26:48;7.77;;;4.30;;
16286;SDS011;8251;53.568;10.018;2023-11-21T08:29:16;7.20;;;3.80;;
16286;SDS011;8251;53.568;10.018;2023-11-21T08:31:44;19.03;;;12.70;;
16286;SDS011;8251;53.568;10.018;2023-11-21T08:34:11;10.33;;;4.67;;
16286;SDS011;8251;53.568;10.018;2023-11-21T08:36:41;5.57;;;4.33;;
16286;SDS011;8251;53.568;10.018;2023-11-21T08:39:08;5.73;;;4.07;;
16286;SDS011;8251;53.568;10.018;2023-11-21T08:41:37;5.03;;;4.00;;
16286;SDS011;8251;53.568;10.018;2023-11-21T08:44:04;6.03;;;3.53;;
16286;SDS011;8251;53.568;10.018;2023-11-21T08:46:33;7.53;;;3.87;;
16286;SDS011;8251;53.568;10.018;2023-11-21T08:49:03;9.87;;;3.57;;
16286;SDS011;8251;53.568;10.018;2023-11-21T08:51:31;3.93;;;3.33;;
16286;SDS011;8251;53.568;10.018;2023-11-21T08:53:58;6.47;;;3.57;;
16286;SDS011;8251;53.568;10.018;2023-11-21T08:56:27;5.13;;;3.17;;
16286;SDS011;8251;53.568;10.018;2023-11-21T08:58:56;3.63;;;2.50;;
16286;SDS011;8251;53.568;10.018;2023-11-21T09:01:23;5.57;;;2.97;;
16286;SDS011;8251;53.568;10.018;2023-11-21T09:03:50;4.23;;;2.93;;
16286;SDS011;8251;53.568;10.018;2023-11-21T09:06:17;3.87;;;2.90;;
16286;SDS011;8251;53.568;10.018;2023-11-21T09:08:44;6.13;;;3.17;;
16286;SDS011;8251;53.568;10.018;2023-11-21T09:11:13;4.23;;;2.80;;
16286;SDS011;8251;53.568;10.018;2023-11-21T09:13:45;4.23;;;2.90;;
16286;SDS011;8251;53.568;10.018;2023-11-21T09:16:15;6.60;;;3.33;;
16286;SDS011;8251;53.568;10.018;2023-11-21T09:18:42;5.70;;;3.57;;
16286;SDS011;8251;53.568;10.018;2023-11-21T09:21:10;4.77;;;2.97;;
16286;SDS011;8251;53.568;10.018;2023-11-21T09:23:37;5.23;;;3.17;;
16286;SDS011;8251;53.568;10.018;2023-11-21T09:26:06;4.60;;;3.27;;
16286;SDS011;8251;53.568;10.018;2023-11-21T09:28:41;7.77;;;3.17;;
16286;SDS011;8251;53.568;10.018;2023-11-21T09:31:11;7.17;;;3.00;;
16286;SDS011;8251;53.568;10.018;2023-11-21T09:33:42;3.80;;;2.63;;
16286;SDS011;8251;53.568;10.018;2023-11-21T09:36:12;3.87;;;2.97;;
16286;SDS011;8251;53.568;10.018;2023-11-21T09:38:40;4.33;;;2.70;;
16286;SDS011;8251;53.568;10.018;2023-11-21T09:41:10;3.67;;;2.90;;
16286;SDS011;8251;53.568;10.018;2023-11-21T09:43:43;4.60;;;3.30;;
16286;SDS011;8251;53.568;10.018;2023-11-21T09:46:12;5.20;;;3.50;;
16286;SDS011;8251;53.568;10.018;2023-11-21T09:48:46;5.60;;;2.90;;
16286;SDS011;8251;53.568;10.018;2023-11-21T09:51:18;4.07;;;2.80;;
16286;SDS011;8251;53.568;10.018;2023-11-21T09:53:48;5.07;;;2.43;;
16286;SDS011;8251;53.568;10.018;2023-11-21T09:56:18;4.10;;;2.83;;
16286;SDS011;8251;53.568;10.018;2023-11-21T09:58:50;4.23;;;2.80;;
16286;SDS011;8251;53.568;10.018;2023-11-21T10:01:20;4.43;;;2.80;;
16286;SDS011;8251;53.568;10.018;2023-11-21T10:03:56;4.43;;;2.70;;
16286;SDS011;8251;53.568;10.018;2023-11-21T10:06:27;4.17;;;2.60;;
16286;SDS011;8251;53.568;10.018;2023-11-21T10:08:56;4.47;;;2.63;;
16286;SDS011;8251;53.568;10.018;2023-11-21T10:11:25;7.63;;;2.47;;
16286;SDS011;8251;53.568;10.018;2023-11-21T10:13:56;4.97;;;2.30;;
16286;SDS011;8251;53.568;10.018;2023-11-21T10:16:25;8.73;;;3.40;;
16286;SDS011;8251;53.568;10.018;2023-11-21T10:18:55;4.73;;;3.20;;
16286;SDS011;8251;53.568;10.018;2023-11-21T10:21:24;2.53;;;2.13;;
16286;SDS011;8251;53.568;10.018;2023-11-21T10:23:51;3.97;;;2.33;;
16286;SDS011;8251;53.568;10.018;2023-11-21T10:26:20;7.53;;;2.20;;
16286;SDS011;8251;53.568;10.018;2023-11-21T10:28:55;3.43;;;2.33;;
16286;SDS011;8251;53.568;10.018;2023-11-21T10:31:23;3.33;;;2.40;;
16286;SDS011;8251;53.568;10.018;2023-11-21T10:33:51;5.20;;;2.00;;
16286;SDS011;8251;53.568;10.018;2023-11-21T10:36:29;2.13;;;1.80;;
16286;SDS011;8251;53.568;10.018;2023-11-21T10:38:56;3.73;;;2.10;;
16286;SDS011;8251;53.568;10.018;2023-11-21T10:41:23;2.33;;;1.77;;
16286;SDS011;8251;53.568;10.018;2023-11-21T10:43:53;2.97;;;1.77;;
16286;SDS011;8251;53.568;10.018;2023-11-21T10:46:21;2.40;;;2.00;;
16286;SDS011;8251;53.568;10.018;2023-11-21T10:48:52;4.80;;;2.93;;
16286;SDS011;8251;53.568;10.018;2023-11-21T10:51:21;4.50;;;2.50;;
16286;SDS011;8251;53.568;10.018;2023-11-21T10:53:50;2.77;;;2.17;;
16286;SDS011;8251;53.568;10.018;2023-11-21T10:56:18;2.07;;;1.70;;
16286;SDS011;8251;53.568;10.018;2023-11-21T10:58:47;7.53;;;2.20;;
16286;SDS011;8251;53.568;10.018;2023-11-21T11:01:19;4.80;;;2.00;;
16286;SDS011;8251;53.568;10.018;2023-11-21T11:03:48;3.40;;;1.90;;
16286;SDS011;8251;53.568;10.018;2023-11-21T11:06:20;2.30;;;2.00;;
16286;SDS011;8251;53.568;10.018;2023-11-21T11:08:48;2.63;;;1.77;;
16286;SDS011;8251;53.568;10.018;2023-11-21T11:11:17;2.20;;;2.00;;
16286;SDS011;8251;53.568;10.018;2023-11-21T11:13:45;3.27;;;2.77;;
16286;SDS011;8251;53.568;10.018;2023-11-21T11:16:12;3.70;;;2.43;;
16286;SDS011;8251;53.568;10.018;2023-11-21T11:18:42;6.33;;;3.43;;
16286;SDS011;8251;53.568;10.018;2023-11-21T11:21:11;5.10;;;3.07;;
16286;SDS011;8251;53.568;10.018;2023-11-21T11:23:57;3.13;;;2.47;;
16286;SDS011;8251;53.568;10.018;2023-11-21T11:26:38;7.80;;;2.27;;
16286;SDS011;8251;53.568;10.018;2023-11-21T11:29:14;3.10;;;2.00;;
16286;SDS011;8251;53.568;10.018;2023-11-21T11:31:50;3.47;;;1.67;;
16286;SDS011;8251;53.568;10.018;2023-11-21T11:34:26;3.00;;;2.07;;
16286;SDS011;8251;53.568;10.018;2023-11-21T11:36:59;5.10;;;2.40;;
16286;SDS011;8251;53.568;10.018;2023-11-21T11:39:30;2.50;;;1.70;;
16286;SDS011;8251;53.568;10.018;2023-11-21T11:42:01;3.27;;;2.20;;
16286;SDS011;8251;53.568;10.018;2023-11-21T11:44:49;3.43;;;1.90;;
16286;SDS011;8251;53.568;10.018;2023-11-21T11:47:20;3.37;;;2.10;;
16286;SDS011;8251;53.568;10.018;2023-11-21T11:49:56;2.90;;;2.10;;
16286;SDS011;8251;53.568;10.018;2023-11-21T11:52:36;2.50;;;1.70;;
16286;SDS011;8251;53.568;10.018;2023-11-21T11:55:07;4.03;;;2.10;;
16286;SDS011;8251;53.568;10.018;2023-11-21T11:57:38;3.40;;;2.90;;
16286;SDS011;8251;53.568;10.018;2023-11-21T12:00:10;3.53;;;2.03;;
16286;SDS011;8251;53.568;10.018;2023-11-21T12:02:41;6.27;;;2.53;;
16286;SDS011;8251;53.568;10.018;2023-11-21T12:05:10;2.30;;;1.70;;
16286;SDS011;8251;53.568;10.018;2023-11-21T12:07:41;3.10;;;2.00;;
16286;SDS011;8251;53.568;10.018;2023-11-21T12:10:13;3.23;;;2.00;;
16286;SDS011;8251;53.568;10.018;2023-11-21T12:12:43;3.07;;;1.73;;
16286;SDS011;8251;53.568;10.018;2023-11-21T12:15:15;6.27;;;2.70;;
16286;SDS011;8251;53.568;10.018;2023-11-21T12:17:43;3.03;;;1.97;;
16286;SDS011;8251;53.568;10.018;2023-11-21T12:20:11;4.70;;;2.10;;
16286;SDS011;8251;53.568;10.018;2023-11-21T12:22:43;3.87;;;2.23;;
16286;SDS011;8251;53.568;10.018;2023-11-21T12:25:20;4.00;;;2.00;;
16286;SDS011;8251;53.568;10.018;2023-11-21T12:27:52;2.60;;;2.07;;
16286;SDS011;8251;53.568;10.018;2023-11-21T12:30:20;2.40;;;1.63;;
16286;SDS011;8251;53.568;10.018;2023-11-21T12:32:49;3.50;;;2.00;;
16286;SDS011;8251;53.568;10.018;2023-11-21T12:35:18;4.83;;;1.70;;
16286;SDS011;8251;53.568;10.018;2023-11-21T12:37:47;2.03;;;1.83;;
16286;SDS011;8251;53.568;10.018;2023-11-21T12:40:15;2.73;;;2.00;;
16286;SDS011;8251;53.568;10.018;2023-11-21T12:42:44;3.73;;;2.00;;
16286;SDS011;8251;53.568;10.018;2023-11-21T12:45:20;3.37;;;1.93;;
16286;SDS011;8251;53.568;10.018;2023-11-21T12:47:51;2.77;;;1.80;;
16286;SDS011;8251;53.568;10.018;2023-11-21T12:50:25;3.50;;;2.10;;
16286;SDS011;8251;53.568;10.018;2023-11-21T12:52:54;2.27;;;1.90;;
16286;SDS011;8251;53.568;10.018;2023-11-21T12:55:25;4.93;;;2.23;;
16286;SDS011;8251;53.568;10.018;2023-11-21T12:57:53;4.23;;;1.97;;
16286;SDS011;8251;53.568;10.018;2023-11-21T13:00:27;2.80;;;1.93;;
16286;SDS011;8251;53.568;10.018;2023-11-21T13:02:58;2.63;;;2.10;;
16286;SDS011;8251;53.568;10.018;2023-11-21T13:05:26;5.70;;;2.13;;
16286;SDS011;8251;53.568;10.018;2023-11-21T13:07:54;3.10;;;1.83;;
16286;SDS011;8251;53.568;10.018;2023-11-21T13:10:23;3.07;;;1.80;;
16286;SDS011;8251;53.568;10.018;2023-11-21T13:12:53;3.10;;;1.60;;
16286;SDS011;8251;53.568;10.018;2023-11-21T13:15:23;5.50;;;1.70;;
16286;SDS011;8251;53.568;10.018;2023-11-21T13:17:50;3.50;;;1.90;;
16286;SDS011;8251;53.568;10.018;2023-11-21T13:20:18;3.87;;;2.00;;
16286;SDS011;8251;53.568;10.018;2023-11-21T13:22:47;7.87;;;2.40;;
16286;SDS011;8251;53.568;10.018;2023-11-21T13:25:17;4.13;;;2.03;;
16286;SDS011;8251;53.568;10.018;2023-11-21T13:27:43;3.83;;;2.03;;
16286;SDS011;8251;53.568;10.018;2023-11-21T13:30:14;4.57;;;2.27;;
16286;SDS011;8251;53.568;10.018;2023-11-21T13:32:43;3.10;;;2.10;;
16286;SDS011;8251;53.568;10.018;2023-11-21T13:35:12;5.57;;;2.20;;
16286;SDS011;8251;53.568;10.018;2023-11-21T13:37:49;7.63;;;2.30;;
16286;SDS011;8251;53.568;10.018;2023-11-21T13:40:21;2.77;;;2.20;;
16286;SDS011;8251;53.568;10.018;2023-11-21T13:42:51;3.50;;;2.00;;
16286;SDS011;8251;53.568;10.018;2023-11-21T13:45:22;4.97;;;1.90;;
16286;SDS011;8251;53.568;10.018;2023-11-21T13:47:50;3.63;;;1.83;;
16286;SDS011;8251;53.568;10.018;2023-11-21T13:50:22;4.80;;;2.00;;
16286;SDS011;8251;53.568;10.018;2023-11-21T13:52:53;2.20;;;1.90;;
16286;SDS011;8251;53.568;10.018;2023-11-21T13:55:21;3.90;;;1.87;;
16286;SDS011;8251;53.568;10.018;2023-11-21T13:57:50;3.07;;;1.53;;
16286;SDS011;8251;53.568;10.018;2023-11-21T14:00:18;2.27;;;1.80;;
16286;SDS011;8251;53.568;10.018;2023-11-21T14:03:24;2.53;;;1.90;;
16286;SDS011;8251;53.568;10.018;2023-11-21T14:06:10;2.77;;;1.93;;
16286;SDS011;8251;53.568;10.018;2023-11-21T14:08:45;2.03;;;1.57;;
16286;SDS011;8251;53.568;10.018;2023-11-21T14:11:13;4.33;;;2.27;;
16286;SDS011;8251;53.568;10.018;2023-11-21T14:13:44;2.50;;;1.90;;
16286;SDS011;8251;53.568;10.018;2023-11-21T14:16:13;2.00;;;1.70;;
16286;SDS011;8251;53.568;10.018;2023-11-21T14:18:43;8.27;;;2.30;;
16286;SDS011;8251;53.568;10.018;2023-11-21T14:21:20;7.30;;;2.20;;
16286;SDS011;8251;53.568;10.018;2023-11-21T14:23:47;2.17;;;1.73;;
16286;SDS011;8251;53.568;10.018;2023-11-21T14:26:15;16.20;;;9.40;;
16286;SDS011;8251;53.568;10.018;2023-11-21T14:28:42;3.83;;;2.53;;
16286;SDS011;8251;53.568;10.018;2023-11-21T14:31:09;4.40;;;2.03;;
16286;SDS011;8251;53.568;10.018;2023-11-21T14:33:39;3.87;;;2.00;;
16286;SDS011;8251;53.568;10.018;2023-11-21T14:36:08;5.77;;;2.00;;
16286;SDS011;8251;53.568;10.018;2023-11-21T14:38:35;2.67;;;1.77;;
16286;SDS011;8251;53.568;10.018;2023-11-21T14:41:04;2.37;;;1.67;;
16286;SDS011;8251;53.568;10.018;2023-11-21T14:43:33;2.67;;;1.60;;
16286;SDS011;8251;53.568;10.018;2023-11-21T14:46:00;4.50;;;1.73;;
16286;SDS011;8251;53.568;10.018;2023-11-21T14:48:28;3.67;;;1.43;;
16286;SDS011;8251;53.568;10.018;2023-11-21T14:51:08;3.30;;;2.43;;
16286;SDS011;8251;53.568;10.018;2023-11-21T14:53:57;5.70;;;1.87;;
16286;SDS011;8251;53.568;10.018;2023-11-21T14:56:31;2.90;;;1.63;;